createdAt,value
2018-05-09T00:03:00.914Z,14.40
2018-05-09T00:06:02.904Z,14.30
2018-05-09T00:09:04.974Z,14.30
2018-05-09T00:12:07.049Z,14.30
2018-05-09T00:15:08.980Z,14.30
2018-05-09T00:18:10.967Z,14.20
2018-05-09T00:21:12.959Z,14.20
2018-05-09T00:24:14.952Z,14.10
2018-05-09T00:27:16.981Z,14.10
2018-05-09T00:30:18.954Z,14.00
2018-05-09T00:33:21.714Z,14.00
2018-05-09T00:36:23.700Z,14.00
2018-05-09T00:39:25.689Z,14.00
2018-05-09T00:42:28.417Z,14.00
2018-05-09T00:45:30.402Z,14.00
2018-05-09T00:48:32.411Z,14.00
2018-05-09T00:51:34.410Z,13.90
2018-05-09T00:54:36.377Z,13.90
2018-05-09T00:57:38.363Z,13.90
2018-05-09T01:00:40.357Z,13.90
2018-05-09T01:03:42.354Z,13.80
2018-05-09T01:06:44.314Z,13.70
2018-05-09T01:09:47.073Z,13.60
2018-05-09T01:12:49.078Z,13.60
2018-05-09T01:15:51.830Z,13.60
2018-05-09T01:18:53.815Z,13.60
2018-05-09T01:21:56.566Z,13.70
2018-05-09T01:24:58.574Z,13.70
2018-05-09T01:28:01.318Z,13.80
2018-05-09T01:31:03.410Z,13.80
2018-05-09T01:34:05.389Z,13.90
2018-05-09T01:37:07.382Z,13.90
2018-05-09T01:40:09.407Z,13.80
2018-05-09T01:43:11.407Z,13.80
2018-05-09T01:46:14.164Z,13.80
2018-05-09T01:49:16.179Z,13.80
2018-05-09T01:52:18.151Z,13.80
2018-05-09T01:55:20.189Z,13.70
2018-05-09T01:58:22.163Z,13.70
2018-05-09T02:01:24.918Z,13.70
2018-05-09T02:04:26.902Z,13.60
2018-05-09T02:07:28.896Z,13.60
2018-05-09T02:10:30.914Z,13.60
2018-05-09T02:13:32.903Z,13.50
2018-05-09T02:16:34.929Z,13.50
2018-05-09T02:19:36.897Z,13.50
2018-05-09T02:22:38.879Z,13.40
2018-05-09T02:25:40.879Z,13.40
2018-05-09T02:28:42.894Z,13.40
2018-05-09T02:31:44.882Z,13.30
2018-05-09T02:34:47.008Z,13.30
2018-05-09T02:37:48.982Z,13.30
2018-05-09T02:40:50.975Z,13.20
2018-05-09T02:43:52.958Z,13.20
2018-05-09T02:46:54.951Z,13.20
2018-05-09T02:49:57.043Z,13.10
2018-05-09T02:52:59.060Z,13.10
2018-05-09T02:56:01.101Z,13.10
2018-05-09T02:59:03.139Z,13.10
2018-05-09T03:02:05.899Z,13.00
2018-05-09T03:05:09.438Z,13.00
2018-05-09T03:08:11.421Z,13.00
2018-05-09T03:11:13.525Z,13.00
2018-05-09T03:14:15.571Z,13.00
2018-05-09T03:17:17.729Z,13.00
2018-05-09T03:20:19.790Z,13.00
2018-05-09T03:23:21.827Z,12.90
2018-05-09T03:26:25.310Z,12.90
2018-05-09T03:29:27.347Z,12.90
2018-05-09T03:32:29.326Z,12.90
2018-05-09T03:35:31.315Z,12.80
2018-05-09T03:38:33.355Z,12.80
2018-05-09T03:41:35.359Z,12.80
2018-05-09T03:44:37.559Z,12.80
2018-05-09T03:47:39.590Z,12.80
2018-05-09T03:50:41.602Z,12.80
2018-05-09T03:53:44.404Z,12.70
2018-05-09T03:56:46.393Z,12.80
2018-05-09T03:59:48.367Z,12.80
2018-05-09T04:03:02.200Z,12.80
2018-05-09T04:06:15.958Z,12.90
2018-05-09T04:09:29.815Z,12.90
2018-05-09T04:12:32.683Z,12.90
2018-05-09T04:15:34.741Z,12.90
2018-05-09T04:18:38.186Z,12.90
2018-05-09T04:21:40.177Z,12.90
2018-05-09T04:24:42.919Z,13.00
2018-05-09T04:27:45.610Z,13.00
2018-05-09T04:30:47.610Z,13.10
2018-05-09T04:33:49.810Z,13.20
2018-05-09T04:36:51.834Z,13.30
2018-05-09T04:39:53.845Z,13.40
2018-05-09T04:42:55.812Z,13.50
2018-05-09T04:45:57.816Z,13.50
2018-05-09T04:48:59.810Z,13.60
2018-05-09T04:52:01.864Z,13.70
2018-05-09T04:55:03.842Z,13.80
2018-05-09T04:58:06.056Z,13.90
2018-05-09T05:01:08.038Z,13.90
2018-05-09T05:04:10.072Z,14.00
2018-05-09T05:07:12.846Z,14.00
2018-05-09T05:10:14.847Z,14.00
2018-05-09T05:13:16.843Z,14.00
2018-05-09T05:16:18.864Z,14.10
2018-05-09T05:19:20.926Z,14.30
2018-05-09T05:22:23.679Z,14.50
2018-05-09T05:25:25.675Z,14.50
2018-05-09T05:28:27.679Z,14.60
2018-05-09T05:31:29.722Z,14.70
2018-05-09T05:34:32.531Z,15.10
2018-05-09T05:37:34.527Z,15.10
2018-05-09T05:40:36.685Z,15.40
2018-05-09T05:43:38.749Z,15.80
2018-05-09T05:46:40.812Z,15.90
2018-05-09T05:49:42.918Z,15.90
2018-05-09T05:52:44.964Z,15.90
2018-05-09T05:55:46.955Z,15.80
2018-05-09T05:58:48.944Z,15.70
2018-05-09T06:01:50.973Z,15.70
2018-05-09T06:04:52.986Z,15.70
2018-05-09T06:07:55.038Z,15.90
2018-05-09T06:10:57.009Z,16.60
2018-05-09T06:13:59.018Z,17.80
2018-05-09T06:17:01.019Z,19.20
2018-05-09T06:20:03.022Z,20.90
2018-05-09T06:23:05.800Z,24.00
2018-05-09T06:26:08.007Z,23.90
2018-05-09T06:29:10.775Z,26.50
2018-05-09T06:32:12.876Z,26.50
2018-05-09T06:35:14.892Z,27.60
2018-05-09T06:38:16.931Z,28.20
2018-05-09T06:41:18.925Z,28.90
2018-05-09T06:44:20.916Z,29.40
2018-05-09T06:47:22.917Z,30.00
2018-05-09T06:50:24.907Z,30.50
2018-05-09T06:53:26.906Z,30.70
2018-05-09T06:56:28.901Z,30.90
2018-05-09T06:59:31.668Z,31.30
2018-05-09T07:02:33.777Z,31.30
2018-05-09T07:05:35.761Z,31.70
2018-05-09T07:08:38.006Z,31.80
2018-05-09T07:11:40.010Z,31.90
2018-05-09T07:14:42.025Z,32.30
2018-05-09T07:17:44.022Z,32.60
2018-05-09T07:20:46.017Z,32.20
2018-05-09T07:23:48.021Z,31.50
2018-05-09T07:26:50.006Z,30.90
2018-05-09T07:29:52.778Z,29.10
2018-05-09T07:32:54.761Z,29.10
2018-05-09T07:35:57.566Z,28.20
2018-05-09T07:38:59.560Z,28.10
2018-05-09T07:42:01.554Z,27.60
2018-05-09T07:45:03.593Z,27.20
2018-05-09T07:48:08.446Z,26.80
2018-05-09T07:51:11.125Z,26.30
2018-05-09T07:54:13.175Z,25.80
2018-05-09T07:57:21.902Z,25.50
2018-05-09T08:00:23.928Z,25.20
2018-05-09T08:03:25.923Z,25.00
2018-05-09T08:06:28.430Z,25.00
2018-05-09T08:09:30.459Z,24.80
2018-05-09T08:12:33.573Z,24.70
2018-05-09T08:15:36.279Z,24.60
2018-05-09T08:18:38.285Z,24.60
2018-05-09T08:21:40.279Z,24.60
2018-05-09T08:24:42.285Z,24.40
2018-05-09T08:27:44.281Z,24.40
2018-05-09T08:30:46.257Z,24.40
2018-05-09T08:33:49.147Z,24.40
2018-05-09T08:36:51.123Z,24.50
2018-05-09T08:39:55.802Z,24.80
2018-05-09T08:42:57.770Z,24.80
2018-05-09T08:45:59.783Z,25.00
2018-05-09T08:49:02.563Z,25.20
2018-05-09T08:52:04.577Z,25.10
2018-05-09T08:55:06.547Z,25.10
2018-05-09T08:58:08.528Z,25.10
2018-05-09T09:01:10.491Z,25.20
2018-05-09T09:04:12.491Z,25.10
2018-05-09T09:07:14.496Z,25.10
2018-05-09T09:10:16.520Z,25.20
2018-05-09T09:13:18.512Z,25.30
2018-05-09T09:16:20.511Z,25.20
2018-05-09T09:19:22.485Z,25.00
2018-05-09T09:22:24.552Z,25.00
2018-05-09T09:42:07.423Z,25.00
2018-05-09T09:45:09.472Z,25.00
2018-05-09T09:48:12.374Z,25.30
2018-05-09T09:51:14.610Z,25.20
2018-05-09T09:54:16.598Z,25.30
2018-05-09T09:57:18.608Z,25.20
2018-05-09T10:00:20.616Z,24.90
2018-05-09T10:03:22.610Z,24.90
2018-05-09T10:06:24.726Z,25.00
2018-05-09T10:09:26.927Z,25.10
2018-05-09T10:12:28.923Z,25.20
2018-05-09T10:15:30.949Z,25.20
2018-05-09T10:18:33.738Z,24.70
2018-05-09T10:21:35.743Z,24.70
2018-05-09T10:24:37.745Z,24.50
2018-05-09T10:27:39.957Z,24.70
2018-05-09T10:30:41.957Z,24.80
2018-05-09T10:33:43.955Z,24.70
2018-05-09T10:36:46.029Z,24.80
2018-05-09T10:39:48.473Z,25.00
2018-05-09T10:42:50.443Z,25.10
2018-05-09T10:45:52.440Z,25.30
2018-05-09T10:48:54.450Z,25.40
2018-05-09T10:51:56.429Z,25.50
2018-05-09T10:54:58.420Z,25.60
2018-05-09T10:58:00.543Z,25.70
2018-05-09T11:01:02.461Z,25.80
2018-05-09T11:04:04.495Z,25.90
2018-05-09T11:07:06.500Z,26.00
2018-05-09T11:10:08.492Z,25.90
2018-05-09T11:13:10.485Z,25.90
2018-05-09T11:16:12.495Z,25.70
2018-05-09T11:19:14.505Z,25.70
2018-05-09T11:22:16.513Z,25.80
2018-05-09T11:25:18.512Z,25.90
2018-05-09T11:28:20.493Z,26.00
2018-05-09T11:31:22.493Z,25.80
2018-05-09T11:34:24.494Z,25.90
2018-05-09T11:37:26.511Z,25.80
2018-05-09T11:40:28.504Z,25.60
2018-05-09T11:43:30.510Z,25.50
2018-05-09T11:46:32.482Z,25.50
2018-05-09T11:49:34.534Z,25.50
2018-05-09T11:52:36.687Z,25.50
2018-05-09T11:55:38.690Z,25.40
2018-05-09T11:58:40.668Z,25.50
2018-05-09T12:01:42.783Z,25.80
2018-05-09T12:04:44.779Z,25.90
2018-05-09T12:07:46.807Z,25.90
2018-05-09T12:10:49.098Z,26.00
2018-05-09T12:13:50.911Z,26.10
2018-05-09T12:16:52.902Z,25.90
2018-05-09T12:19:55.960Z,25.40
2018-05-09T12:22:57.942Z,25.30
2018-05-09T12:26:00.261Z,25.50
2018-05-09T12:29:02.320Z,25.70
2018-05-09T12:32:04.348Z,26.00
2018-05-09T12:35:06.337Z,26.10
2018-05-09T12:38:08.355Z,26.10
2018-05-09T12:41:10.355Z,26.20
2018-05-09T12:44:12.383Z,26.10
2018-05-09T12:47:14.380Z,25.90
2018-05-09T12:50:16.412Z,26.10
2018-05-09T12:53:18.412Z,26.10
2018-05-09T12:56:20.430Z,26.10
2018-05-09T12:59:23.207Z,25.50
2018-05-09T13:02:25.188Z,25.40
2018-05-09T13:05:27.233Z,25.30
2018-05-09T13:08:29.284Z,25.30
2018-05-09T13:11:31.268Z,25.20
2018-05-09T13:14:33.371Z,24.90
2018-05-09T13:17:35.371Z,24.80
2018-05-09T13:20:37.379Z,24.60
2018-05-09T13:23:39.381Z,24.60
2018-05-09T13:26:41.401Z,24.80
2018-05-09T13:29:43.375Z,24.90
2018-05-09T13:32:45.380Z,24.80
2018-05-09T13:35:47.535Z,24.80
2018-05-09T13:38:50.328Z,24.70
2018-05-09T13:41:52.311Z,24.70
2018-05-09T13:44:54.394Z,24.70
2018-05-09T13:47:56.442Z,24.80
2018-05-09T13:50:58.464Z,24.80
2018-05-09T13:54:00.483Z,24.60
2018-05-09T13:57:02.960Z,24.60
2018-05-09T14:00:04.998Z,24.30
2018-05-09T14:10:18.827Z,24.80
2018-05-09T14:13:21.178Z,24.80
2018-05-09T14:16:23.954Z,25.10
2018-05-09T14:19:25.966Z,25.10
2018-05-09T14:22:28.022Z,25.40
2018-05-09T14:25:30.054Z,25.60
2018-05-09T14:28:32.163Z,25.70
2018-05-09T14:31:34.183Z,25.80
2018-05-09T14:34:36.392Z,25.90
2018-05-09T14:37:39.293Z,26.10
2018-05-09T14:40:41.420Z,26.10
2018-05-09T14:43:44.093Z,26.20
2018-05-09T14:46:47.276Z,26.20
2018-05-09T14:49:49.415Z,26.00
2018-05-09T14:52:52.407Z,25.90
2018-05-09T14:55:54.592Z,25.80
2018-05-09T14:58:57.344Z,26.10
2018-05-09T15:02:00.127Z,26.00
2018-05-09T15:05:02.936Z,25.80
2018-05-09T15:08:04.931Z,25.70
2018-05-09T15:11:07.474Z,25.80
2018-05-09T15:14:09.674Z,25.70
2018-05-09T15:17:11.690Z,25.70
2018-05-09T15:20:14.400Z,25.80
2018-05-09T15:23:16.398Z,26.00
2018-05-09T15:26:18.471Z,26.10
2018-05-09T15:29:21.366Z,26.10
2018-05-09T15:32:23.383Z,26.10
2018-05-09T15:35:25.391Z,26.10
2018-05-09T15:38:27.393Z,26.00
2018-05-09T15:41:29.408Z,26.00
2018-05-09T15:44:31.420Z,26.00
2018-05-09T15:47:33.471Z,25.90
2018-05-09T15:50:35.516Z,26.00
2018-05-09T15:53:37.585Z,25.80
2018-05-09T15:56:39.589Z,25.70
2018-05-09T15:59:41.717Z,25.60
2018-05-09T16:02:43.742Z,25.60
2018-05-09T16:05:45.989Z,25.60
2018-05-09T16:08:48.057Z,25.50
2018-05-09T16:11:50.076Z,25.50
2018-05-09T16:14:53.754Z,25.50
2018-05-09T16:17:55.917Z,25.40
2018-05-09T16:20:58.411Z,25.10
2018-05-09T16:24:00.412Z,25.00
2018-05-09T16:27:02.582Z,25.20
2018-05-09T16:30:06.614Z,25.00
2018-05-09T16:33:08.636Z,25.00
2018-05-09T16:36:10.693Z,24.90
2018-05-09T16:39:12.900Z,24.80
2018-05-09T16:42:15.719Z,24.80
2018-05-09T16:45:17.773Z,24.80
2018-05-09T16:48:19.850Z,24.70
2018-05-09T16:51:22.132Z,24.60
2018-05-09T16:54:24.419Z,24.40
2018-05-09T16:57:26.450Z,24.30
2018-05-09T17:00:29.590Z,24.20
2018-05-09T17:03:31.755Z,24.10
2018-05-09T17:06:34.440Z,23.90
2018-05-09T17:09:36.584Z,23.70
2018-05-09T17:12:38.624Z,23.70
2018-05-09T17:15:41.346Z,23.70
2018-05-09T17:18:43.394Z,23.70
2018-05-09T17:21:58.014Z,23.70
2018-05-09T17:25:00.035Z,23.70
2018-05-09T17:28:02.873Z,23.40
2018-05-09T17:31:04.906Z,23.40
2018-05-09T17:34:06.919Z,23.30
2018-05-09T17:37:08.956Z,23.30
2018-05-09T17:40:11.754Z,23.20
2018-05-09T17:43:13.888Z,23.20
2018-05-09T17:46:15.896Z,23.10
2018-05-09T17:49:17.933Z,23.10
2018-05-09T17:52:21.069Z,23.10
2018-05-09T17:55:23.102Z,22.90
2018-05-09T17:58:25.183Z,22.70
2018-05-09T18:01:27.207Z,22.60
2018-05-09T18:04:30.123Z,22.60
2018-05-09T18:07:32.998Z,22.60
2018-05-09T18:10:35.012Z,22.60
2018-05-09T18:13:37.025Z,22.50
2018-05-09T18:16:39.860Z,22.50
2018-05-09T18:19:41.854Z,22.50
2018-05-09T18:22:43.865Z,22.40
2018-05-09T18:25:45.911Z,22.40
2018-05-09T18:28:48.019Z,22.40
2018-05-09T18:31:51.417Z,22.30
2018-05-09T18:34:53.479Z,22.30
2018-05-09T18:37:55.475Z,22.20
2018-05-09T18:40:57.559Z,22.20
2018-05-09T18:44:00.698Z,22.10
2018-05-09T18:47:03.519Z,22.00
2018-05-09T18:50:06.697Z,22.00
2018-05-09T18:53:09.693Z,22.00
2018-05-09T18:56:11.724Z,21.90
2018-05-09T18:59:13.833Z,21.90
2018-05-09T19:02:16.052Z,21.80
2018-05-09T19:05:18.368Z,21.80
2018-05-09T19:08:20.463Z,21.70
2018-05-09T19:11:22.775Z,21.60
2018-05-09T19:14:24.891Z,21.60
2018-05-09T19:17:27.657Z,21.40
2018-05-09T19:20:29.767Z,21.40
2018-05-09T19:23:31.859Z,21.40
2018-05-09T19:26:35.573Z,21.20
2018-05-09T19:29:38.487Z,21.10
2018-05-09T19:32:41.288Z,21.00
2018-05-09T19:35:44.613Z,21.00
2018-05-09T19:38:47.976Z,20.90
2018-05-09T19:41:53.331Z,20.80
2018-05-09T19:44:56.215Z,20.70
2018-05-09T19:47:59.358Z,20.60
2018-05-09T19:51:01.544Z,20.50
2018-05-09T19:54:06.238Z,20.40
2018-05-09T19:57:08.268Z,20.30
2018-05-09T20:00:11.900Z,20.10
2018-05-09T20:03:14.790Z,20.00
2018-05-09T20:06:17.568Z,19.90
2018-05-09T20:09:19.600Z,19.90
2018-05-09T20:12:21.843Z,19.80
2018-05-09T20:15:23.899Z,19.70
2018-05-09T20:18:27.602Z,19.60
2018-05-09T20:21:29.871Z,19.50
2018-05-09T20:24:31.903Z,19.40
2018-05-09T20:27:34.128Z,19.40
2018-05-09T20:30:36.158Z,19.30
2018-05-09T20:33:38.724Z,19.20
2018-05-09T20:36:40.729Z,19.20
2018-05-09T20:39:42.796Z,19.10
2018-05-09T20:42:44.967Z,19.00
2018-05-09T20:45:47.759Z,19.00
2018-05-09T20:48:49.905Z,18.90
2018-05-09T20:51:52.146Z,18.90
2018-05-09T20:54:54.175Z,18.90
2018-05-09T20:57:56.421Z,18.80
2018-05-09T21:00:58.743Z,18.80
2018-05-09T21:04:00.747Z,18.70
2018-05-09T21:07:03.341Z,18.60
2018-05-09T21:10:06.275Z,18.50
2018-05-09T21:13:08.368Z,18.40
2018-05-09T21:16:10.471Z,18.40
2018-05-09T21:19:13.373Z,18.30
2018-05-09T21:22:15.422Z,18.30
2018-05-09T21:25:17.509Z,18.30
2018-05-09T21:28:19.629Z,18.20
2018-05-09T21:31:21.655Z,18.20
2018-05-09T21:34:23.818Z,18.20
2018-05-09T21:37:25.950Z,18.10
2018-05-09T21:40:28.233Z,18.10
2018-05-09T21:43:30.397Z,18.00
2018-05-09T21:46:32.536Z,17.90
2018-05-09T21:49:34.576Z,17.80
2018-05-09T21:52:36.574Z,17.80
2018-05-09T21:55:38.635Z,17.70
2018-05-09T21:58:40.617Z,17.60
2018-05-09T22:01:42.787Z,17.60
2018-05-09T22:04:44.799Z,17.50
2018-05-09T22:07:46.925Z,17.50
2018-05-09T22:10:48.975Z,17.50
2018-05-09T22:13:50.978Z,17.40
2018-05-09T22:16:53.917Z,17.40
2018-05-09T22:19:56.713Z,17.40
2018-05-09T22:22:59.496Z,17.30
2018-05-09T22:26:01.584Z,17.30
2018-05-09T22:29:03.583Z,17.20
2018-05-09T22:32:05.661Z,17.20
2018-05-09T22:35:07.802Z,17.10
2018-05-09T22:38:09.797Z,17.10
2018-05-09T22:41:11.777Z,17.00
2018-05-09T22:44:13.770Z,17.00
2018-05-09T22:47:15.767Z,17.00
2018-05-09T22:50:17.760Z,17.00
2018-05-09T22:53:19.823Z,17.00
2018-05-09T22:56:21.836Z,16.90
2018-05-09T22:59:23.920Z,16.90
2018-05-09T23:02:25.890Z,16.80
2018-05-09T23:05:28.654Z,16.70
2018-05-09T23:08:32.170Z,16.70
2018-05-09T23:11:34.963Z,16.70
2018-05-09T23:14:36.947Z,16.70
2018-05-09T23:17:38.930Z,16.70
2018-05-09T23:20:40.931Z,16.60
2018-05-09T23:23:42.959Z,16.60
2018-05-09T23:26:44.949Z,16.60
2018-05-09T23:29:46.922Z,16.50
2018-05-09T23:32:48.931Z,16.50
2018-05-09T23:35:50.910Z,16.40
2018-05-09T23:38:53.685Z,16.40
2018-05-09T23:41:56.508Z,16.30
2018-05-09T23:44:58.531Z,16.20
2018-05-09T23:48:00.517Z,16.20
2018-05-09T23:51:02.529Z,16.20
2018-05-09T23:54:04.539Z,16.10
2018-05-09T23:57:06.536Z,16.10
